createdAt,value
2022-08-17T00:01:31.464Z,16.52
2022-08-17T00:04:19.406Z,16.88
2022-08-17T00:06:49.040Z,16.35
2022-08-17T00:09:18.943Z,16.77
2022-08-17T00:12:40.764Z,17.23
2022-08-17T00:14:34.902Z,17.52
2022-08-17T00:17:03.731Z,16.73
2022-08-17T00:19:32.488Z,17.23
2022-08-17T00:22:31.288Z,17.02
2022-08-17T00:24:47.580Z,17.00
2022-08-17T00:27:14.216Z,17.63
2022-08-17T00:29:41.149Z,16.63
2022-08-17T00:33:12.433Z,16.13
2022-08-17T00:34:55.050Z,16.95
2022-08-17T00:37:21.695Z,17.25
2022-08-17T00:39:48.370Z,17.92
2022-08-17T00:42:16.643Z,17.00
2022-08-17T00:44:43.234Z,18.58
2022-08-17T00:47:09.941Z,18.40
2022-08-17T00:49:36.557Z,18.50
2022-08-17T00:52:11.654Z,18.67
2022-08-17T00:54:42.024Z,18.15
2022-08-17T00:57:11.982Z,18.80
2022-08-17T00:59:41.585Z,18.08
2022-08-17T01:02:10.030Z,18.63
2022-08-17T01:04:36.842Z,17.27
2022-08-17T01:07:04.007Z,17.52
2022-08-17T01:09:31.980Z,19.42
2022-08-17T01:11:58.632Z,17.50
2022-08-17T01:14:26.278Z,18.63
2022-08-17T01:16:54.832Z,18.77
2022-08-17T01:19:28.748Z,19.52
2022-08-17T01:24:31.278Z,17.77
2022-08-17T01:27:00.620Z,18.90
2022-08-17T01:29:30.784Z,17.45
2022-08-17T01:32:04.217Z,17.88
2022-08-17T01:34:42.745Z,16.70
2022-08-17T01:37:12.094Z,17.48
2022-08-17T01:39:47.529Z,17.58
2022-08-17T01:42:24.981Z,16.65
2022-08-17T01:44:56.222Z,17.95
2022-08-17T01:47:23.633Z,18.90
2022-08-17T01:49:50.861Z,17.52
2022-08-17T01:52:17.822Z,18.80
2022-08-17T01:54:47.359Z,18.63
2022-08-17T01:57:14.600Z,18.35
2022-08-17T01:59:41.208Z,18.10
2022-08-17T02:02:08.734Z,19.30
2022-08-17T02:04:35.358Z,18.77
2022-08-17T02:07:02.002Z,18.52
2022-08-17T02:09:30.124Z,17.85
2022-08-17T02:11:59.439Z,19.25
2022-08-17T02:14:26.619Z,18.20
2022-08-17T02:16:53.836Z,18.92
2022-08-17T02:19:20.498Z,19.92
2022-08-17T02:21:49.594Z,19.10
2022-08-17T02:24:59.963Z,18.77
2022-08-17T02:27:13.528Z,18.98
2022-08-17T02:29:40.140Z,19.45
2022-08-17T02:32:07.013Z,18.55
2022-08-17T02:34:33.898Z,19.00
2022-08-17T02:37:00.520Z,21.85
2022-08-17T02:39:27.234Z,19.95
2022-08-17T02:42:01.017Z,20.08
2022-08-17T02:44:39.826Z,19.15
2022-08-17T02:47:08.374Z,18.95
2022-08-17T02:49:37.261Z,21.38
2022-08-17T02:52:06.687Z,20.23
2022-08-17T02:54:40.415Z,19.08
2022-08-17T02:57:08.927Z,19.90
2022-08-17T02:59:35.589Z,18.98
2022-08-17T03:02:10.430Z,18.50
2022-08-17T03:04:37.960Z,19.33
2022-08-17T03:07:05.445Z,21.05
2022-08-17T03:09:32.270Z,19.02
2022-08-17T03:12:12.948Z,18.33
2022-08-17T03:14:41.660Z,20.67
2022-08-17T03:17:17.077Z,19.83
2022-08-17T03:19:44.571Z,19.00
2022-08-17T03:22:36.445Z,19.10
2022-08-17T03:24:59.705Z,20.08
2022-08-17T03:27:26.376Z,20.60
2022-08-17T03:29:53.355Z,20.45
2022-08-17T03:32:20.902Z,19.02
2022-08-17T03:34:47.794Z,18.65
2022-08-17T03:37:14.816Z,18.25
2022-08-17T03:39:41.628Z,20.92
2022-08-17T03:42:32.513Z,19.10
2022-08-17T03:45:00.310Z,19.63
2022-08-17T03:47:45.677Z,21.05
2022-08-17T03:50:31.899Z,19.45
2022-08-17T03:53:17.229Z,19.27
2022-08-17T03:56:02.485Z,20.45
2022-08-17T03:58:29.178Z,19.95
2022-08-17T04:00:56.138Z,20.27
2022-08-17T04:03:22.763Z,20.30
2022-08-17T04:05:49.512Z,19.40
2022-08-17T04:08:16.178Z,20.73
2022-08-17T04:10:44.989Z,19.40
2022-08-17T04:13:12.360Z,22.23
2022-08-17T04:15:42.655Z,21.67
2022-08-17T04:18:10.921Z,20.67
2022-08-17T04:20:37.893Z,20.45
2022-08-17T04:23:11.908Z,20.02
2022-08-17T04:25:41.616Z,20.98
2022-08-17T04:28:14.617Z,20.58
2022-08-17T04:30:45.264Z,21.83
2022-08-17T04:33:15.143Z,19.48
2022-08-17T04:35:45.604Z,20.02
2022-08-17T04:38:19.084Z,20.10
2022-08-17T04:41:04.290Z,20.80
2022-08-17T04:43:32.458Z,20.20
2022-08-17T04:46:01.910Z,19.63
2022-08-17T04:48:36.551Z,22.02
2022-08-17T04:51:07.471Z,26.05
2022-08-17T04:53:34.125Z,21.48
2022-08-17T04:56:00.744Z,20.90
2022-08-17T04:58:27.464Z,20.13
2022-08-17T05:00:54.111Z,19.88
2022-08-17T05:03:20.745Z,19.02
2022-08-17T05:05:49.684Z,19.27
2022-08-17T05:08:18.609Z,19.50
2022-08-17T05:10:45.814Z,19.83
2022-08-17T05:13:15.922Z,18.90
2022-08-17T05:15:45.334Z,18.00
2022-08-17T05:18:15.988Z,17.92
2022-08-17T05:20:42.824Z,17.73
2022-08-17T05:23:12.537Z,17.40
2022-08-17T05:25:47.636Z,17.02
2022-08-17T05:28:18.687Z,17.92
2022-08-17T05:30:50.211Z,18.20
2022-08-17T05:33:19.352Z,16.95
2022-08-17T05:35:49.022Z,16.48
2022-08-17T05:38:18.170Z,16.38
2022-08-17T05:40:45.059Z,17.10
2022-08-17T05:43:22.091Z,16.50
2022-08-17T05:46:04.138Z,15.23
2022-08-17T05:48:40.281Z,17.13
2022-08-17T05:51:16.510Z,15.60
2022-08-17T05:54:15.520Z,15.63
2022-08-17T05:57:16.135Z,15.00
2022-08-17T06:00:05.674Z,14.50
2022-08-17T06:02:54.778Z,13.10
2022-08-17T06:06:06.472Z,12.43
2022-08-17T06:08:45.517Z,11.88
2022-08-17T06:11:32.509Z,12.18
2022-08-17T06:14:20.825Z,11.82
2022-08-17T06:16:50.865Z,12.10
2022-08-17T06:19:31.011Z,13.15
2022-08-17T06:21:58.568Z,13.25
2022-08-17T06:24:34.150Z,13.05
2022-08-17T06:27:37.424Z,13.55
2022-08-17T06:30:25.662Z,13.27
2022-08-17T06:32:53.729Z,13.18
2022-08-17T06:35:42.328Z,11.20
2022-08-17T06:38:37.119Z,12.82
2022-08-17T06:41:23.354Z,13.20
2022-08-17T06:44:43.390Z,12.73
2022-08-17T06:47:13.525Z,13.63
2022-08-17T06:49:49.542Z,15.35
2022-08-17T06:52:45.241Z,17.98
2022-08-17T06:55:21.437Z,14.73
2022-08-17T06:57:52.223Z,14.20
2022-08-17T07:00:25.208Z,15.02
2022-08-17T07:03:21.284Z,13.70
2022-08-17T07:05:51.694Z,14.65
2022-08-17T07:08:38.127Z,15.10
2022-08-17T07:11:13.081Z,14.50
2022-08-17T07:13:57.403Z,14.20
2022-08-17T07:16:41.107Z,14.10
2022-08-17T07:19:08.222Z,14.18
2022-08-17T07:21:51.672Z,13.95
2022-08-17T07:24:59.632Z,13.60
2022-08-17T07:27:30.980Z,12.25
2022-08-17T07:30:09.536Z,12.98
2022-08-17T07:32:41.586Z,12.98
2022-08-17T07:35:18.459Z,11.88
2022-08-17T07:37:55.553Z,12.00
2022-08-17T07:40:28.153Z,11.98
2022-08-17T07:43:21.912Z,12.23
2022-08-17T07:46:30.220Z,11.55
2022-08-17T07:49:16.276Z,11.20
2022-08-17T07:51:42.790Z,10.98
2022-08-17T07:54:14.798Z,9.93
2022-08-17T07:56:46.368Z,9.25
2022-08-17T07:59:23.535Z,8.63
2022-08-17T08:01:57.660Z,9.27
2022-08-17T08:05:00.277Z,9.63
2022-08-17T08:07:20.912Z,9.25
2022-08-17T08:10:06.562Z,9.00
2022-08-17T08:12:39.464Z,7.72
2022-08-17T08:15:13.081Z,10.32
2022-08-17T08:17:58.101Z,9.30
2022-08-17T08:20:51.106Z,10.38
2022-08-17T08:23:42.285Z,10.43
2022-08-17T08:26:18.451Z,10.93
2022-08-17T08:29:12.554Z,11.88
2022-08-17T08:32:07.738Z,11.32
2022-08-17T08:34:53.255Z,9.43
2022-08-17T08:37:53.470Z,10.70
2022-08-17T08:40:32.227Z,10.55
2022-08-17T08:43:18.366Z,11.23
2022-08-17T08:46:16.224Z,10.15
2022-08-17T08:49:14.597Z,9.05
2022-08-17T08:51:47.126Z,9.60
2022-08-17T08:54:28.696Z,9.75
2022-08-17T08:57:24.473Z,8.90
2022-08-17T08:59:58.199Z,9.48
2022-08-17T09:02:35.172Z,8.63
2022-08-17T09:05:20.620Z,10.20
2022-08-17T09:08:11.095Z,8.98
2022-08-17T09:11:05.227Z,9.13
2022-08-17T09:13:40.983Z,8.23
2022-08-17T09:17:06.516Z,8.60
2022-08-17T09:19:45.339Z,8.70
2022-08-17T09:22:26.231Z,8.20
2022-08-17T09:25:03.172Z,7.85
2022-08-17T09:28:06.018Z,7.75
2022-08-17T09:30:52.463Z,9.18
2022-08-17T09:33:23.160Z,7.93
2022-08-17T09:35:54.277Z,8.95
2022-08-17T09:38:49.814Z,8.75
2022-08-17T09:41:34.610Z,8.48
2022-08-17T09:44:13.521Z,8.30
2022-08-17T09:47:19.536Z,7.03
2022-08-17T09:49:52.571Z,6.78
2022-08-17T09:52:22.567Z,7.80
2022-08-17T09:54:51.431Z,7.22
2022-08-17T09:57:31.496Z,7.25
2022-08-17T10:00:16.453Z,9.40
2022-08-17T10:03:09.677Z,7.20
2022-08-17T10:05:47.244Z,6.63
2022-08-17T10:08:35.592Z,7.60
2022-08-17T10:11:09.902Z,7.28
2022-08-17T10:13:59.609Z,6.40
2022-08-17T10:16:51.116Z,8.82
2022-08-17T10:19:39.926Z,7.35
2022-08-17T10:22:41.163Z,7.22
2022-08-17T10:25:48.555Z,7.68
2022-08-17T10:28:20.992Z,7.07
2022-08-17T10:31:05.459Z,7.10
2022-08-17T10:34:01.916Z,8.77
2022-08-17T10:36:50.007Z,6.70
2022-08-17T10:39:30.653Z,6.57
2022-08-17T10:42:03.766Z,6.68
2022-08-17T10:44:42.396Z,7.32
2022-08-17T10:47:15.790Z,6.60
2022-08-17T10:52:21.748Z,7.32
2022-08-17T10:55:06.268Z,6.97
2022-08-17T10:57:39.058Z,6.25
2022-08-17T11:00:14.803Z,9.63
2022-08-17T11:02:50.967Z,5.95
2022-08-17T11:05:46.654Z,6.43
2022-08-17T11:08:31.370Z,6.00
2022-08-17T11:11:35.911Z,6.10
2022-08-17T11:14:25.906Z,5.80
2022-08-17T11:17:15.181Z,5.53
2022-08-17T11:19:48.934Z,6.10
2022-08-17T11:22:33.994Z,6.22
2022-08-17T11:25:16.638Z,5.93
2022-08-17T11:27:44.558Z,6.27
2022-08-17T11:30:33.121Z,5.75
2022-08-17T11:33:00.464Z,6.47
2022-08-17T11:35:38.619Z,11.93
2022-08-17T11:38:28.494Z,6.25
2022-08-17T11:41:10.485Z,6.10
2022-08-17T11:43:59.335Z,5.90
2022-08-17T11:47:07.565Z,6.38
2022-08-17T11:50:17.346Z,5.90
2022-08-17T11:52:46.914Z,6.07
2022-08-17T11:55:40.727Z,5.80
2022-08-17T11:58:29.305Z,5.82
2022-08-17T12:00:58.241Z,7.55
2022-08-17T12:03:31.869Z,6.00
2022-08-17T12:06:19.944Z,6.38
2022-08-17T12:08:55.323Z,5.82
2022-08-17T12:11:55.461Z,5.85
2022-08-17T12:14:51.340Z,6.43
2022-08-17T12:17:34.720Z,6.45
2022-08-17T12:20:21.452Z,5.87
2022-08-17T12:23:06.955Z,6.00
2022-08-17T12:25:36.439Z,6.00
2022-08-17T12:28:06.605Z,6.28
2022-08-17T12:30:34.927Z,6.00
2022-08-17T12:33:01.748Z,8.60
2022-08-17T12:35:35.183Z,6.20
2022-08-17T12:38:02.935Z,5.80
2022-08-17T12:40:31.585Z,5.97
2022-08-17T12:43:04.161Z,5.47
2022-08-17T12:45:39.661Z,5.70
2022-08-17T12:48:10.302Z,5.90
2022-08-17T12:50:39.492Z,5.82
2022-08-17T12:53:12.370Z,5.13
2022-08-17T12:55:40.643Z,6.75
2022-08-17T12:58:14.494Z,6.38
2022-08-17T13:00:48.577Z,6.68
2022-08-17T13:03:19.465Z,7.03
2022-08-17T13:05:52.193Z,6.82
2022-08-17T13:08:32.036Z,6.43
2022-08-17T13:10:59.947Z,6.22
2022-08-17T13:13:29.901Z,5.85
2022-08-17T13:16:14.326Z,6.93
2022-08-17T13:19:04.911Z,5.95
2022-08-17T13:21:33.243Z,10.30
2022-08-17T13:24:19.644Z,5.97
2022-08-17T13:26:49.087Z,7.03
2022-08-17T13:29:21.871Z,6.72
2022-08-17T13:31:52.872Z,6.28
2022-08-17T13:34:29.348Z,6.22
2022-08-17T13:37:17.836Z,5.68
2022-08-17T13:39:47.471Z,6.82
2022-08-17T13:42:33.136Z,5.93
2022-08-17T13:45:00.921Z,10.60
2022-08-17T13:47:28.094Z,6.80
2022-08-17T13:49:57.933Z,6.10
2022-08-17T13:52:39.793Z,6.20
2022-08-17T13:55:16.557Z,8.95
2022-08-17T13:57:48.666Z,6.00
2022-08-17T14:00:30.664Z,5.03
2022-08-17T14:02:58.326Z,6.20
2022-08-17T14:05:25.579Z,6.22
2022-08-17T14:08:02.140Z,6.35
2022-08-17T14:10:35.804Z,5.85
2022-08-17T14:13:03.420Z,6.00
2022-08-17T14:15:55.316Z,5.63
2022-08-17T14:18:34.257Z,6.05
2022-08-17T14:21:08.411Z,5.65
2022-08-17T14:23:35.851Z,6.18
2022-08-17T14:26:02.648Z,6.72
2022-08-17T14:28:29.379Z,6.20
2022-08-17T14:30:56.238Z,5.18
2022-08-17T14:33:24.729Z,5.68
2022-08-17T14:35:54.814Z,6.35
2022-08-17T14:38:21.474Z,5.70
2022-08-17T14:40:48.354Z,5.75
2022-08-17T14:43:15.834Z,6.00
2022-08-17T14:45:43.108Z,6.47
2022-08-17T14:48:10.111Z,5.28
2022-08-17T14:50:40.927Z,7.35
2022-08-17T14:53:10.835Z,5.82
2022-08-17T14:55:39.906Z,6.50
2022-08-17T14:58:07.601Z,13.93
2022-08-17T15:00:34.745Z,7.63
2022-08-17T15:03:02.437Z,6.60
2022-08-17T15:05:32.370Z,7.18
2022-08-17T15:08:01.088Z,6.25
2022-08-17T15:10:29.321Z,6.60
2022-08-17T15:12:56.274Z,5.80
2022-08-17T15:15:23.190Z,6.32
2022-08-17T15:17:51.630Z,7.05
2022-08-17T15:20:25.040Z,6.38
2022-08-17T15:22:55.640Z,6.88
2022-08-17T15:25:23.723Z,6.30
2022-08-17T15:27:50.638Z,6.68
2022-08-17T15:30:17.645Z,6.30
2022-08-17T15:32:48.199Z,5.82
2022-08-17T15:35:26.882Z,6.10
2022-08-17T15:38:04.652Z,6.40
2022-08-17T15:40:34.963Z,6.03
2022-08-17T15:43:09.246Z,6.25
2022-08-17T15:45:35.926Z,5.80
2022-08-17T15:48:02.626Z,5.43
2022-08-17T15:50:29.389Z,13.80
2022-08-17T15:52:58.002Z,6.85
2022-08-17T15:55:27.182Z,19.15
2022-08-17T15:57:53.908Z,17.55
2022-08-17T16:00:23.611Z,10.90
2022-08-17T16:03:44.866Z,14.02
2022-08-17T16:05:37.181Z,24.70
2022-08-17T16:08:04.306Z,9.98
2022-08-17T16:10:35.639Z,13.05
2022-08-17T16:13:03.464Z,14.52
2022-08-17T16:15:31.882Z,14.38
2022-08-17T16:17:59.430Z,13.95
2022-08-17T16:20:26.671Z,7.60
2022-08-17T16:22:54.455Z,6.82
2022-08-17T16:25:38.794Z,6.78
2022-08-17T16:28:16.508Z,6.50
2022-08-17T16:30:43.463Z,6.47
2022-08-17T16:33:11.730Z,6.80
2022-08-17T16:35:38.913Z,6.45
2022-08-17T16:38:07.123Z,6.35
2022-08-17T16:40:36.153Z,6.57
2022-08-17T16:43:04.385Z,6.63
2022-08-17T16:45:36.696Z,6.30
2022-08-17T16:48:03.967Z,7.40
2022-08-17T16:50:32.009Z,7.68
2022-08-17T16:53:17.268Z,7.80
2022-08-17T16:55:45.174Z,7.75
2022-08-17T16:58:11.974Z,8.27
2022-08-17T17:00:39.434Z,7.60
2022-08-17T17:03:19.355Z,8.50
2022-08-17T17:06:13.709Z,7.78
2022-08-17T17:08:49.570Z,8.32
2022-08-17T17:11:23.329Z,8.40
2022-08-17T17:13:56.583Z,8.15
2022-08-17T17:16:46.733Z,8.57
2022-08-17T17:19:34.463Z,8.32
2022-08-17T17:22:16.320Z,8.10
2022-08-17T17:25:29.092Z,8.40
2022-08-17T17:28:14.621Z,7.97
2022-08-17T17:30:56.951Z,8.70
2022-08-17T17:33:40.383Z,9.30
2022-08-17T17:36:27.814Z,11.13
2022-08-17T17:39:00.073Z,9.38
2022-08-17T17:41:34.313Z,8.75
2022-08-17T17:44:05.806Z,9.13
2022-08-17T17:46:38.570Z,8.88
2022-08-17T17:49:06.224Z,9.05
2022-08-17T17:52:06.807Z,9.25
2022-08-17T17:55:02.920Z,10.75
2022-08-17T17:58:07.159Z,9.52
2022-08-17T18:00:42.623Z,12.40
2022-08-17T18:03:24.818Z,8.93
2022-08-17T18:06:02.348Z,8.82
2022-08-17T18:08:34.700Z,9.15
2022-08-17T18:11:34.783Z,8.83
2022-08-17T18:14:22.035Z,9.68
2022-08-17T18:16:54.798Z,9.90
2022-08-17T18:19:28.252Z,9.05
2022-08-17T18:22:06.733Z,9.30
2022-08-17T18:24:43.576Z,9.23
2022-08-17T18:27:29.718Z,9.55
2022-08-17T18:30:03.373Z,8.70
2022-08-17T18:32:43.768Z,10.00
2022-08-17T18:35:18.771Z,9.75
2022-08-17T18:37:48.904Z,9.75
2022-08-17T18:40:19.512Z,10.57
2022-08-17T18:43:07.414Z,9.98
2022-08-17T18:45:34.024Z,9.85
2022-08-17T18:48:01.056Z,9.88
2022-08-17T18:50:35.706Z,9.20
2022-08-17T18:53:30.403Z,10.35
2022-08-17T18:56:27.246Z,10.88
2022-08-17T18:59:16.770Z,9.77
2022-08-17T19:01:53.333Z,9.65
2022-08-17T19:04:55.745Z,9.05
2022-08-17T19:07:22.279Z,10.20
2022-08-17T19:09:53.916Z,10.43
2022-08-17T19:12:30.074Z,9.70
2022-08-17T19:14:57.657Z,11.18
2022-08-17T19:17:30.828Z,9.55
2022-08-17T19:20:07.722Z,10.02
2022-08-17T19:22:47.083Z,16.48
2022-08-17T19:25:19.219Z,10.40
2022-08-17T19:27:57.446Z,9.88
2022-08-17T19:30:25.150Z,10.38
2022-08-17T19:32:53.060Z,10.20
2022-08-17T19:35:22.152Z,11.93
2022-08-17T19:38:01.876Z,9.85
2022-08-17T19:40:52.717Z,10.10
2022-08-17T19:43:48.271Z,10.35
2022-08-17T19:46:26.122Z,10.50
2022-08-17T19:49:03.359Z,9.93
2022-08-17T19:51:40.898Z,10.25
2022-08-17T19:54:20.363Z,11.27
2022-08-17T19:57:09.796Z,9.88
2022-08-17T20:00:06.928Z,10.15
2022-08-17T20:02:38.246Z,10.32
2022-08-17T20:05:15.489Z,11.23
2022-08-17T20:07:54.410Z,10.30
2022-08-17T20:10:54.563Z,10.48
2022-08-17T20:13:33.023Z,10.68
2022-08-17T20:16:01.624Z,11.35
2022-08-17T20:18:34.372Z,9.82
2022-08-17T20:21:10.568Z,12.83
2022-08-17T20:23:54.261Z,11.23
2022-08-17T20:26:36.639Z,11.38
2022-08-17T20:29:37.194Z,11.00
2022-08-17T20:32:13.740Z,10.52
2022-08-17T20:34:40.592Z,11.00
2022-08-17T20:37:13.525Z,10.88
2022-08-17T20:39:46.814Z,10.38
2022-08-17T20:42:19.909Z,10.75
2022-08-17T20:44:52.720Z,11.07
2022-08-17T20:47:27.518Z,12.07
2022-08-17T20:50:04.314Z,11.25
2022-08-17T20:52:51.216Z,11.95
2022-08-17T20:55:51.409Z,11.07
2022-08-17T20:58:30.645Z,10.63
2022-08-17T21:00:57.814Z,11.43
2022-08-17T21:03:25.291Z,10.82
2022-08-17T21:06:00.612Z,11.90
2022-08-17T21:08:33.665Z,11.43
2022-08-17T21:11:21.838Z,12.73
2022-08-17T21:14:46.059Z,12.00
2022-08-17T21:17:29.616Z,12.52
2022-08-17T21:20:10.962Z,12.05
2022-08-17T21:22:57.595Z,11.25
2022-08-17T21:25:37.185Z,10.70
2022-08-17T21:28:30.049Z,11.15
2022-08-17T21:31:09.005Z,12.27
2022-08-17T21:33:38.523Z,12.02
2022-08-17T21:36:19.959Z,12.77
2022-08-17T21:38:57.395Z,11.68
2022-08-17T21:41:27.365Z,12.27
2022-08-17T21:44:30.539Z,12.65
2022-08-17T21:47:13.388Z,12.40
2022-08-17T21:49:40.083Z,11.98
2022-08-17T21:52:07.235Z,12.43
2022-08-17T21:54:36.241Z,12.00
2022-08-17T21:57:06.486Z,11.85
2022-08-17T21:59:37.728Z,13.27
2022-08-17T22:02:06.672Z,13.60
2022-08-17T22:04:35.188Z,12.48
2022-08-17T22:07:05.279Z,13.13
2022-08-17T22:09:43.706Z,13.63
2022-08-17T22:12:15.122Z,12.23
2022-08-17T22:14:53.118Z,12.45
2022-08-17T22:17:29.653Z,12.70
2022-08-17T22:20:09.651Z,12.45
2022-08-17T22:22:59.540Z,13.68
2022-08-17T22:25:27.833Z,13.40
2022-08-17T22:27:58.411Z,13.18
2022-08-17T22:30:39.821Z,12.77
2022-08-17T22:33:29.997Z,13.65
2022-08-17T22:36:29.073Z,11.68
2022-08-17T22:39:11.264Z,12.65
2022-08-17T22:41:48.002Z,12.90
2022-08-17T22:44:17.713Z,12.18
2022-08-17T22:46:56.143Z,13.27
2022-08-17T22:49:26.787Z,13.63
2022-08-17T22:52:32.043Z,13.80
2022-08-17T22:55:34.189Z,13.20
2022-08-17T22:58:20.439Z,13.57
2022-08-17T23:00:48.918Z,12.82
2022-08-17T23:03:17.912Z,13.93
2022-08-17T23:05:48.137Z,15.50
2022-08-17T23:08:15.488Z,13.85
2022-08-17T23:10:43.055Z,13.05
2022-08-17T23:13:11.897Z,13.57
2022-08-17T23:15:41.678Z,13.20
2022-08-17T23:18:08.383Z,12.50
2022-08-17T23:20:37.500Z,12.02
2022-08-17T23:23:06.815Z,12.38
2022-08-17T23:25:34.633Z,13.07
2022-08-17T23:28:03.086Z,12.63
2022-08-17T23:30:31.636Z,14.43
2022-08-17T23:33:05.330Z,12.07
2022-08-17T23:35:39.806Z,12.43
2022-08-17T23:38:09.700Z,12.25
2022-08-17T23:40:37.797Z,13.27
2022-08-17T23:43:11.419Z,12.52
2022-08-17T23:45:50.520Z,12.00
2022-08-17T23:48:35.146Z,10.85
2022-08-17T23:51:29.917Z,12.18
2022-08-17T23:54:12.625Z,12.27
2022-08-17T23:56:46.534Z,13.18
2022-08-17T23:59:20.239Z,12.00
